createdAt,value
2019-04-19T00:01:22.506Z,31.37
2019-04-19T00:03:53.101Z,33.60
2019-04-19T00:06:38.223Z,30.90
2019-04-19T00:09:25.117Z,29.82
2019-04-19T00:11:43.909Z,27.13
2019-04-19T00:14:08.577Z,29.23
2019-04-19T00:16:38.542Z,29.52
2019-04-19T00:19:38.127Z,28.17
2019-04-19T00:22:05.011Z,27.93
2019-04-19T00:24:09.967Z,33.63
2019-04-19T00:26:40.015Z,30.70
2019-04-19T00:29:20.225Z,27.25
2019-04-19T00:31:49.410Z,27.73
2019-04-19T00:34:10.526Z,25.68
2019-04-19T00:36:40.527Z,29.72
2019-04-19T00:39:42.576Z,28.35
2019-04-19T00:42:35.379Z,30.10
2019-04-19T00:45:15.854Z,28.67
2019-04-19T00:47:46.477Z,27.82
2019-04-19T00:50:09.902Z,25.95
2019-04-19T00:52:46.510Z,29.05
2019-04-19T00:55:08.242Z,25.95
2019-04-19T00:57:37.223Z,31.12
2019-04-19T01:00:00.384Z,25.40
2019-04-19T01:02:30.257Z,25.30
2019-04-19T01:05:05.527Z,24.07
2019-04-19T01:07:34.394Z,27.42
2019-04-19T01:10:14.822Z,28.00
2019-04-19T01:12:51.451Z,26.17
2019-04-19T01:15:15.328Z,23.42
2019-04-19T01:17:52.442Z,40.05
2019-04-19T01:20:07.004Z,25.55
2019-04-19T01:22:35.815Z,23.80
2019-04-19T01:25:14.049Z,26.87
2019-04-19T01:27:37.632Z,20.82
2019-04-19T01:30:08.280Z,24.77
2019-04-19T01:32:43.051Z,23.62
2019-04-19T01:35:13.341Z,22.32
2019-04-19T01:37:39.568Z,19.52
2019-04-19T01:40:22.448Z,26.77
2019-04-19T01:42:57.813Z,27.40
2019-04-19T01:45:59.505Z,21.02
2019-04-19T01:48:39.681Z,21.55
2019-04-19T01:51:20.379Z,22.45
2019-04-19T01:53:50.356Z,22.42
2019-04-19T01:56:10.891Z,23.92
2019-04-19T01:58:44.599Z,23.80
2019-04-19T02:01:12.464Z,23.55
2019-04-19T02:03:43.611Z,22.02
2019-04-19T02:06:11.588Z,21.07
2019-04-19T02:08:47.392Z,16.67
2019-04-19T02:11:47.182Z,23.47
2019-04-19T02:14:13.506Z,23.60
2019-04-19T02:16:39.162Z,27.27
2019-04-19T02:19:15.815Z,17.45
2019-04-19T02:21:42.411Z,21.77
2019-04-19T02:24:10.684Z,20.97
2019-04-19T02:26:50.314Z,22.62
2019-04-19T02:29:19.057Z,21.73
2019-04-19T02:32:07.328Z,21.23
2019-04-19T02:34:51.717Z,22.13
2019-04-19T02:44:51.808Z,20.52
2019-04-19T02:47:39.254Z,19.05
2019-04-19T02:52:22.214Z,21.57
2019-04-19T02:57:39.538Z,22.40
2019-04-19T03:00:23.041Z,21.93
2019-04-19T03:02:58.028Z,31.35
2019-04-19T03:05:22.380Z,22.07
2019-04-19T03:07:26.122Z,22.20
2019-04-19T03:09:55.544Z,24.85
2019-04-19T03:12:47.206Z,23.32
2019-04-19T03:15:10.094Z,26.23
2019-04-19T03:17:47.361Z,20.77
2019-04-19T03:20:11.847Z,29.20
2019-04-19T03:22:42.300Z,32.45
2019-04-19T03:25:15.952Z,27.17
2019-04-19T03:27:43.292Z,27.65
2019-04-19T03:30:11.977Z,23.85
2019-04-19T03:35:14.263Z,25.55
2019-04-19T03:37:53.176Z,27.10
2019-04-19T03:40:23.354Z,22.50
2019-04-19T03:43:00.431Z,24.05
2019-04-19T03:45:35.251Z,26.23
2019-04-19T03:48:08.884Z,26.97
2019-04-19T03:50:32.594Z,23.92
2019-04-19T03:53:06.459Z,28.40
2019-04-19T03:55:37.467Z,23.73
2019-04-19T03:57:58.072Z,26.40
2019-04-19T04:00:21.586Z,27.22
2019-04-19T04:02:52.448Z,27.07
2019-04-19T04:05:23.048Z,26.87
2019-04-19T04:08:07.487Z,33.15
2019-04-19T04:10:43.744Z,43.45
2019-04-19T04:13:38.402Z,29.52
2019-04-19T04:16:24.216Z,28.70
2019-04-19T04:18:47.037Z,28.00
2019-04-19T04:21:16.329Z,33.98
2019-04-19T04:23:51.117Z,28.32
2019-04-19T04:26:19.506Z,28.32
2019-04-19T04:29:00.689Z,29.07
2019-04-19T04:31:26.330Z,29.95
2019-04-19T04:33:59.378Z,31.70
2019-04-19T04:36:36.204Z,29.50
2019-04-19T04:38:49.997Z,26.20
2019-04-19T04:41:25.760Z,28.27
2019-04-19T04:44:11.374Z,26.57
2019-04-19T04:47:03.237Z,25.15
2019-04-19T04:49:55.803Z,27.98
2019-04-19T04:52:23.838Z,29.87
2019-04-19T04:54:48.173Z,25.02
2019-04-19T04:57:28.443Z,24.52
2019-04-19T04:59:54.229Z,30.80
2019-04-19T05:02:42.416Z,29.63
2019-04-19T05:05:10.226Z,26.57
2019-04-19T05:07:47.808Z,26.65
2019-04-19T05:10:15.994Z,24.00
2019-04-19T05:13:05.597Z,29.52
2019-04-19T05:15:24.701Z,30.25
2019-04-19T05:18:01.446Z,30.30
2019-04-19T05:20:23.861Z,26.68
2019-04-19T05:23:14.249Z,28.27
2019-04-19T05:25:48.257Z,30.40
2019-04-19T05:28:17.735Z,24.55
2019-04-19T05:31:03.534Z,32.98
2019-04-19T05:33:44.132Z,27.27
2019-04-19T05:36:22.307Z,30.40
2019-04-19T05:38:59.404Z,28.57
2019-04-19T05:41:52.861Z,27.70
2019-04-19T05:44:36.033Z,27.73
2019-04-19T05:47:06.222Z,24.30
2019-04-19T05:49:26.280Z,30.35
2019-04-19T05:52:05.471Z,21.80
2019-04-19T05:54:15.274Z,24.75
2019-04-19T05:56:50.504Z,22.50
2019-04-19T05:59:26.668Z,25.43
2019-04-19T06:01:59.150Z,24.37
2019-04-19T06:04:31.414Z,21.55
2019-04-19T06:07:09.534Z,21.52
2019-04-19T06:09:17.667Z,24.92
2019-04-19T06:11:48.376Z,25.57
2019-04-19T06:14:41.054Z,20.50
2019-04-19T06:17:27.901Z,27.50
2019-04-19T06:19:57.562Z,20.00
2019-04-19T06:22:42.999Z,21.35
2019-04-19T06:25:06.653Z,20.77
2019-04-19T06:28:02.456Z,22.52
2019-04-19T06:30:15.193Z,20.55
2019-04-19T06:32:46.031Z,21.27
2019-04-19T06:35:12.290Z,20.75
2019-04-19T06:38:13.776Z,21.50
2019-04-19T06:40:59.101Z,20.37
2019-04-19T06:44:57.238Z,21.10
2019-04-19T06:48:53.147Z,20.15
2019-04-19T06:53:56.692Z,19.23
2019-04-19T06:56:53.683Z,19.35
2019-04-19T06:59:30.028Z,16.52
2019-04-19T07:09:56.855Z,15.83
2019-04-19T07:12:14.992Z,20.02
2019-04-19T07:18:51.996Z,16.17
2019-04-19T07:21:49.321Z,17.02
2019-04-19T07:24:37.575Z,15.35
2019-04-19T07:27:23.433Z,15.03
2019-04-19T07:29:45.756Z,17.62
2019-04-19T07:32:17.800Z,13.75
2019-04-19T07:35:02.291Z,16.97
2019-04-19T07:37:34.869Z,16.70
2019-04-19T07:40:16.499Z,14.58
2019-04-19T07:42:39.808Z,24.55
2019-04-19T07:45:05.800Z,16.82
2019-04-19T07:47:45.530Z,14.25
2019-04-19T07:50:15.426Z,17.67
2019-04-19T07:52:45.360Z,15.43
2019-04-19T07:55:11.015Z,16.90
2019-04-19T07:58:16.788Z,13.50
2019-04-19T08:00:46.727Z,15.65
2019-04-19T08:05:43.921Z,14.85
2019-04-19T08:08:30.240Z,12.93
2019-04-19T08:10:40.884Z,14.50
2019-04-19T08:15:49.726Z,13.45
2019-04-19T08:18:13.080Z,14.30
2019-04-19T08:28:03.152Z,14.03
2019-04-19T08:30:32.133Z,16.93
2019-04-19T08:32:53.208Z,12.33
2019-04-19T08:35:25.608Z,14.53
2019-04-19T08:38:02.448Z,13.85
2019-04-19T08:41:57.093Z,12.60
2019-04-19T08:43:18.766Z,12.68
2019-04-19T08:45:56.746Z,15.38
2019-04-19T08:48:51.039Z,15.55
2019-04-19T08:51:36.673Z,17.40
2019-04-19T08:54:29.747Z,15.08
2019-04-19T08:56:44.896Z,11.35
2019-04-19T08:59:35.842Z,15.32
2019-04-19T09:02:00.882Z,16.75
2019-04-19T09:04:34.791Z,16.00
2019-04-19T09:10:00.128Z,15.95
2019-04-19T09:12:19.994Z,12.37
2019-04-19T09:14:52.299Z,13.83
2019-04-19T09:17:23.122Z,10.63
2019-04-19T09:22:19.393Z,19.65
2019-04-19T09:24:45.000Z,11.30
2019-04-19T09:27:31.001Z,15.03
2019-04-19T09:29:55.173Z,11.75
2019-04-19T09:32:11.911Z,10.88
2019-04-19T09:34:43.881Z,12.98
2019-04-19T09:37:18.373Z,17.10
2019-04-19T09:39:48.698Z,12.20
2019-04-19T09:42:19.075Z,12.30
2019-04-19T09:44:46.143Z,15.15
2019-04-19T09:47:10.380Z,15.43
2019-04-19T09:49:58.704Z,13.08
2019-04-19T09:52:39.714Z,12.70
2019-04-19T09:55:09.277Z,13.22
2019-04-19T09:57:35.719Z,13.48
2019-04-19T09:59:51.041Z,12.73
2019-04-19T10:02:29.037Z,12.98
2019-04-19T10:04:53.080Z,11.40
2019-04-19T10:07:23.062Z,12.53
2019-04-19T10:09:56.746Z,11.87
2019-04-19T10:12:22.872Z,15.30
2019-04-19T10:14:51.721Z,13.60
2019-04-19T10:17:22.630Z,13.20
2019-04-19T10:19:52.814Z,14.70
2019-04-19T10:22:23.072Z,21.40
2019-04-19T10:24:54.112Z,16.87
2019-04-19T10:30:32.267Z,13.27
2019-04-19T10:33:02.375Z,14.87
2019-04-19T10:35:31.584Z,15.70
2019-04-19T10:38:01.970Z,14.03
2019-04-19T10:40:33.446Z,12.40
2019-04-19T10:43:03.203Z,12.77
2019-04-19T10:45:32.459Z,13.33
2019-04-19T10:48:02.165Z,12.50
2019-04-19T10:50:49.758Z,14.03
2019-04-19T10:53:18.981Z,12.77
2019-04-19T10:55:54.098Z,14.30
2019-04-19T10:58:23.596Z,14.80
2019-04-19T11:00:53.470Z,13.37
2019-04-19T11:03:23.219Z,19.67
2019-04-19T11:05:52.653Z,15.43
2019-04-19T11:08:22.446Z,12.70
2019-04-19T11:10:51.926Z,18.77
2019-04-19T11:13:25.730Z,16.23
2019-04-19T11:15:52.130Z,13.93
2019-04-19T11:18:21.608Z,14.77
2019-04-19T11:20:52.826Z,15.00
2019-04-19T11:23:21.868Z,14.53
2019-04-19T11:25:52.251Z,14.90
2019-04-19T11:28:21.398Z,12.40
2019-04-19T11:31:02.501Z,18.57
2019-04-19T11:33:33.086Z,15.30
2019-04-19T11:36:03.551Z,16.27
2019-04-19T11:38:36.815Z,16.20
2019-04-19T11:41:06.987Z,16.10
2019-04-19T11:43:37.657Z,14.80
2019-04-19T11:46:06.935Z,13.17
2019-04-19T11:48:37.474Z,14.80
2019-04-19T11:51:07.685Z,12.67
2019-04-19T11:53:45.670Z,10.67
2019-04-19T11:56:46.275Z,14.03
2019-04-19T11:59:37.216Z,12.53
2019-04-19T12:02:02.207Z,11.87
2019-04-19T12:04:32.273Z,18.20
2019-04-19T12:07:02.727Z,13.47
2019-04-19T12:09:32.458Z,13.20
2019-04-19T12:12:01.561Z,12.50
2019-04-19T12:14:31.628Z,12.10
2019-04-19T12:17:02.737Z,10.30
2019-04-19T12:19:41.447Z,11.30
2019-04-19T12:22:12.891Z,12.37
2019-04-19T12:24:44.692Z,10.30
2019-04-19T12:27:45.703Z,8.43
2019-04-19T12:30:25.455Z,17.50
2019-04-19T12:33:15.297Z,8.97
2019-04-19T12:35:49.461Z,10.90
2019-04-19T12:38:19.864Z,8.90
2019-04-19T12:41:01.673Z,8.53
2019-04-19T12:43:27.937Z,10.13
2019-04-19T12:45:57.273Z,9.70
2019-04-19T12:48:27.850Z,7.80
2019-04-19T12:51:05.762Z,9.27
2019-04-19T12:53:54.251Z,10.07
2019-04-19T12:56:31.840Z,8.87
2019-04-19T12:59:01.937Z,9.87
2019-04-19T13:01:39.768Z,19.47
2019-04-19T13:04:13.106Z,14.10
2019-04-19T13:07:08.816Z,13.23
2019-04-19T13:09:39.329Z,14.27
2019-04-19T13:12:11.005Z,9.50
2019-04-19T13:14:40.164Z,9.97
2019-04-19T13:17:10.423Z,11.97
2019-04-19T13:19:40.813Z,13.13
2019-04-19T13:22:10.404Z,11.50
2019-04-19T13:24:40.518Z,12.40
2019-04-19T13:27:09.861Z,12.43
2019-04-19T13:29:39.007Z,12.40
2019-04-19T13:32:09.348Z,14.77
2019-04-19T13:34:39.126Z,12.27
2019-04-19T13:37:19.070Z,13.17
2019-04-19T13:39:58.952Z,12.47
2019-04-19T13:42:33.476Z,14.60
2019-04-19T13:45:15.285Z,13.60
2019-04-19T13:47:34.345Z,13.50
2019-04-19T13:50:19.317Z,15.70
2019-04-19T13:52:37.078Z,16.13
2019-04-19T13:55:16.776Z,13.70
2019-04-19T13:58:13.697Z,16.80
2019-04-19T14:00:49.103Z,16.20
2019-04-19T14:03:27.562Z,12.23
2019-04-19T14:05:57.773Z,13.83
2019-04-19T14:08:29.619Z,13.40
2019-04-19T14:10:59.295Z,14.00
2019-04-19T14:13:29.060Z,13.43
2019-04-19T14:15:58.799Z,11.90
2019-04-19T14:18:28.776Z,13.13
2019-04-19T14:20:59.126Z,14.30
2019-04-19T14:23:28.656Z,16.17
2019-04-19T14:25:59.025Z,15.33
2019-04-19T14:28:29.407Z,11.77
2019-04-19T14:31:04.720Z,13.63
2019-04-19T14:33:33.169Z,14.30
2019-04-19T14:36:03.984Z,15.33
2019-04-19T14:38:33.885Z,15.00
2019-04-19T14:41:03.060Z,11.90
2019-04-19T14:43:32.369Z,9.70
2019-04-19T14:46:02.374Z,13.23
2019-04-19T14:48:37.108Z,10.80
2019-04-19T14:51:09.637Z,15.53
2019-04-19T14:53:33.459Z,10.50
2019-04-19T14:56:02.755Z,13.50
2019-04-19T14:58:31.847Z,14.10
2019-04-19T15:01:17.265Z,10.57
2019-04-19T15:03:48.832Z,12.10
2019-04-19T15:06:18.005Z,13.37
2019-04-19T15:08:47.645Z,13.07
2019-04-19T15:11:17.929Z,12.80
2019-04-19T15:13:47.232Z,11.83
2019-04-19T15:16:16.727Z,10.10
2019-04-19T15:18:46.129Z,10.20
2019-04-19T15:21:18.612Z,11.73
2019-04-19T15:23:47.352Z,12.00
2019-04-19T15:26:16.452Z,10.70
2019-04-19T15:28:46.760Z,13.80
2019-04-19T15:31:16.646Z,10.70
2019-04-19T15:33:45.792Z,12.60
2019-04-19T15:36:15.643Z,13.13
2019-04-19T15:38:45.940Z,10.57
2019-04-19T15:41:16.401Z,15.83
2019-04-19T15:43:46.038Z,12.93
2019-04-19T15:46:15.618Z,12.43
2019-04-19T15:48:48.949Z,12.77
2019-04-19T15:51:37.908Z,9.20
2019-04-19T15:54:06.268Z,14.23
2019-04-19T15:56:36.170Z,9.50
2019-04-19T15:59:07.071Z,8.97
2019-04-19T16:01:53.750Z,10.13
2019-04-19T16:04:41.908Z,7.93
2019-04-19T16:07:26.067Z,8.10
2019-04-19T16:10:08.399Z,8.73
2019-04-19T16:12:41.834Z,8.57
2019-04-19T16:15:11.745Z,9.30
2019-04-19T16:17:41.892Z,11.03
2019-04-19T16:20:11.436Z,10.13
2019-04-19T16:22:40.699Z,11.40
2019-04-19T16:25:10.310Z,10.83
2019-04-19T16:27:48.502Z,8.37
2019-04-19T16:30:18.622Z,9.87
2019-04-19T16:32:48.879Z,8.70
2019-04-19T16:35:18.155Z,9.40
2019-04-19T16:37:47.221Z,11.30
2019-04-19T16:40:18.510Z,10.80
2019-04-19T16:42:48.014Z,7.83
2019-04-19T16:45:18.067Z,14.10
2019-04-19T16:47:47.392Z,9.60
2019-04-19T16:50:18.647Z,9.90
2019-04-19T16:52:54.616Z,8.57
2019-04-19T16:55:23.780Z,10.13
2019-04-19T16:57:52.930Z,11.07
2019-04-19T17:00:32.797Z,8.90
2019-04-19T17:03:07.936Z,9.10
2019-04-19T17:05:50.646Z,7.43
2019-04-19T17:11:39.663Z,10.43
2019-04-19T17:14:16.893Z,8.90
2019-04-19T17:17:36.363Z,6.57
2019-04-19T17:20:52.075Z,9.43
2019-04-19T17:23:26.603Z,10.17
2019-04-19T17:25:59.068Z,8.67
2019-04-19T17:31:18.221Z,8.00
2019-04-19T17:33:48.276Z,10.37
2019-04-19T17:36:18.253Z,7.57
2019-04-19T17:38:54.698Z,8.25
2019-04-19T17:41:24.975Z,6.63
2019-04-19T17:43:55.404Z,7.53
2019-04-19T17:46:24.897Z,12.73
2019-04-19T17:48:54.879Z,10.53
2019-04-19T17:51:27.411Z,9.83
2019-04-19T17:53:58.362Z,8.05
2019-04-19T17:56:31.351Z,8.00
2019-04-19T17:59:02.374Z,9.25
2019-04-19T18:01:42.287Z,10.95
2019-04-19T18:04:19.903Z,8.40
2019-04-19T18:06:57.878Z,10.98
2019-04-19T18:09:26.773Z,6.60
2019-04-19T18:12:11.645Z,10.23
2019-04-19T18:14:41.427Z,5.97
2019-04-19T18:17:26.366Z,6.95
2019-04-19T18:20:00.027Z,12.20
2019-04-19T18:22:38.839Z,5.85
2019-04-19T18:25:00.375Z,7.55
2019-04-19T18:27:56.620Z,9.70
2019-04-19T18:30:48.249Z,8.68
2019-04-19T18:33:22.136Z,8.43
2019-04-19T18:35:58.359Z,6.53
2019-04-19T18:38:25.699Z,9.35
2019-04-19T18:40:55.505Z,9.80
2019-04-19T18:43:37.741Z,7.90
2019-04-19T18:45:55.421Z,10.93
2019-04-19T18:48:24.855Z,6.53
2019-04-19T18:50:56.030Z,10.43
2019-04-19T18:54:02.195Z,9.83
2019-04-19T18:56:25.393Z,9.75
2019-04-19T18:59:08.223Z,9.98
2019-04-19T19:01:41.628Z,6.92
2019-04-19T19:04:23.418Z,9.78
2019-04-19T19:06:51.620Z,10.72
2019-04-19T19:09:33.508Z,9.70
2019-04-19T19:12:00.622Z,7.87
2019-04-19T19:14:24.650Z,7.25
2019-04-19T19:17:20.546Z,7.87
2019-04-19T19:19:54.662Z,8.23
2019-04-19T19:23:09.612Z,8.20
2019-04-19T19:26:10.610Z,8.10
2019-04-19T19:28:49.883Z,9.23
2019-04-19T19:34:34.869Z,9.73
2019-04-19T19:37:32.047Z,10.32
2019-04-19T19:48:28.366Z,9.60
2019-04-19T19:51:17.842Z,9.00
2019-04-19T19:56:32.392Z,7.42
2019-04-19T20:02:09.390Z,9.03
2019-04-19T20:04:27.262Z,9.78
2019-04-19T20:07:01.158Z,7.00
2019-04-19T20:10:15.589Z,7.45
2019-04-19T20:13:08.891Z,8.25
2019-04-19T20:15:50.988Z,9.60
2019-04-19T20:18:23.190Z,6.62
2019-04-19T20:21:36.690Z,9.18
2019-04-19T20:24:43.295Z,8.33
2019-04-19T20:27:09.554Z,8.58
2019-04-19T20:29:43.573Z,9.45
2019-04-19T20:32:17.387Z,7.75
2019-04-19T20:34:43.796Z,7.62
2019-04-19T20:37:16.700Z,6.90
2019-04-19T20:39:48.350Z,6.90
2019-04-19T20:42:24.368Z,9.23
2019-04-19T20:45:00.366Z,9.13
2019-04-19T20:47:28.052Z,8.20
2019-04-19T20:50:12.801Z,7.97
2019-04-19T20:52:44.195Z,7.78
2019-04-19T20:55:26.785Z,6.65
2019-04-19T20:58:22.897Z,13.72
2019-04-19T21:00:44.188Z,8.33
2019-04-19T21:03:17.629Z,9.95
2019-04-19T21:05:47.674Z,7.47
2019-04-19T21:08:16.334Z,9.85
2019-04-19T21:10:53.795Z,11.70
2019-04-19T21:13:19.610Z,8.15
2019-04-19T21:15:46.914Z,9.83
2019-04-19T21:18:20.716Z,7.12
2019-04-19T21:20:47.242Z,8.20
2019-04-19T21:23:22.118Z,8.55
2019-04-19T21:25:53.740Z,13.98
2019-04-19T21:28:18.828Z,7.85
2019-04-19T21:30:54.190Z,7.40
2019-04-19T21:33:20.145Z,8.68
2019-04-19T21:35:57.157Z,8.45
2019-04-19T21:38:24.497Z,8.78
2019-04-19T21:40:50.404Z,7.22
2019-04-19T21:43:21.298Z,11.40
2019-04-19T21:45:53.259Z,8.15
2019-04-19T21:48:26.859Z,7.70
2019-04-19T21:50:53.559Z,6.25
2019-04-19T21:53:22.794Z,7.50
2019-04-19T21:55:59.579Z,9.43
2019-04-19T21:58:24.830Z,7.72
2019-04-19T22:01:16.033Z,8.30
2019-04-19T22:03:44.267Z,7.40
2019-04-19T22:06:21.152Z,7.30
2019-04-19T22:08:45.984Z,7.28
2019-04-19T22:11:16.219Z,9.70
2019-04-19T22:13:48.892Z,8.00
2019-04-19T22:16:16.651Z,7.55
2019-04-19T22:18:50.573Z,9.88
2019-04-19T22:21:16.688Z,9.33
2019-04-19T22:23:49.883Z,9.20
2019-04-19T22:26:25.064Z,8.38
2019-04-19T22:28:47.868Z,8.03
2019-04-19T22:31:24.442Z,8.40
2019-04-19T22:33:48.368Z,7.37
2019-04-19T22:36:17.549Z,7.28
2019-04-19T22:38:47.849Z,8.98
2019-04-19T22:41:20.513Z,8.25
2019-04-19T22:43:48.901Z,9.65
2019-04-19T22:46:19.483Z,14.65
2019-04-19T22:48:54.353Z,9.88
2019-04-19T22:51:20.304Z,9.33
2019-04-19T22:53:50.436Z,7.45
2019-04-19T22:56:28.172Z,11.12
2019-04-19T22:58:49.947Z,9.73
2019-04-19T23:01:31.569Z,8.65
2019-04-19T23:04:09.765Z,10.23
2019-04-19T23:06:32.585Z,13.00
2019-04-19T23:09:05.087Z,11.65
2019-04-19T23:11:33.326Z,10.60
2019-04-19T23:14:03.242Z,11.05
2019-04-19T23:16:35.168Z,12.73
2019-04-19T23:19:05.918Z,15.68
2019-04-19T23:21:33.241Z,9.23
2019-04-19T23:24:08.277Z,14.07
2019-04-19T23:26:57.403Z,13.05
2019-04-19T23:29:04.436Z,10.98
2019-04-19T23:31:38.784Z,10.10
2019-04-19T23:34:06.405Z,11.97
2019-04-19T23:36:35.391Z,14.23
2019-04-19T23:39:10.204Z,11.53
2019-04-19T23:41:37.161Z,11.78
2019-04-19T23:44:11.241Z,10.60
2019-04-19T23:46:37.458Z,9.10
2019-04-19T23:49:10.351Z,11.10
2019-04-19T23:51:36.982Z,10.13
2019-04-19T23:54:15.069Z,8.83
2019-04-19T23:56:49.144Z,9.18
2019-04-19T23:59:12.860Z,14.13
